Time;durP1;ratioP1;P1;durP2;ratioP2;P2;SDS_P1;SDS_P2;PMS_P1;PMS_P2;Temp;Humidity;BMP_temperature;BMP_pressure;BME280_temperature;BME280_humidity;BME280_pressure;Samples;Min_cycle;Max_cycle;Signal;HPM_P1;HPM_P2
2022/12/21 00:01:10;;;;;;;10.87;8.70;;;;;;;6.65;100.00;98005.72;5092160;28;20222;-87
2022/12/21 00:03:37;;;;;;;9.93;8.50;;;;;;;6.62;100.00;98026.91;5092192;28;20229;-87
2022/12/21 00:06:04;;;;;;;12.03;9.17;;;;;;;6.55;100.00;98020.31;5092004;28;20286;-87
2022/12/21 00:08:31;;;;;;;11.80;8.80;;;;;;;6.52;100.00;98022.22;5092079;28;20258;-87
2022/12/21 00:10:59;;;;;;;12.83;9.97;;;;;;;6.49;100.00;98010.16;5091646;28;20286;-87
2022/12/21 00:13:27;;;;;;;13.67;9.90;;;;;;;6.40;100.00;98015.88;5091809;28;20741;-87
2022/12/21 00:15:57;;;;;;;12.67;9.83;;;;;;;6.38;100.00;97999.38;5092004;28;20205;-87
2022/12/21 00:18:24;;;;;;;13.27;10.07;;;;;;;6.30;100.00;98003.34;5091955;28;20213;-87
2022/12/21 00:20:57;;;;;;;13.40;10.50;;;;;;;6.35;100.00;98011.81;5091535;28;20216;-87
2022/12/21 00:23:24;;;;;;;12.67;9.33;;;;;;;6.29;100.00;98012.97;5091676;28;20248;-88
2022/12/21 00:25:50;;;;;;;13.20;10.13;;;;;;;6.31;100.00;98008.53;5091535;28;20236;-87
2022/12/21 00:28:17;;;;;;;13.03;10.20;;;;;;;6.28;100.00;98005.22;5091573;28;20214;-87
2022/12/21 00:30:45;;;;;;;12.97;10.20;;;;;;;6.29;100.00;98005.09;5090562;28;20216;-87
2022/12/21 00:33:12;;;;;;;13.57;10.70;;;;;;;6.31;100.00;98008.53;5091540;28;20211;-87
2022/12/21 00:35:38;;;;;;;13.60;9.90;;;;;;;6.35;100.00;98017.91;5091461;28;20662;-87
2022/12/21 00:38:05;;;;;;;14.63;10.80;;;;;;;6.31;100.00;98005.03;5091419;28;20214;-87
2022/12/21 00:40:31;;;;;;;10.37;9.10;;;;;;;6.37;100.00;98016.06;5091079;28;20209;-87
2022/12/21 00:42:58;;;;;;;12.03;9.40;;;;;;;6.40;100.00;98015.06;5091486;28;20209;-87
2022/12/21 00:45:24;;;;;;;10.13;8.73;;;;;;;6.42;100.00;98014.00;5091229;28;20243;-87
2022/12/21 00:47:52;;;;;;;11.00;8.23;;;;;;;6.51;100.00;98015.28;5091236;28;20678;-87
2022/12/21 00:50:19;;;;;;;12.07;8.33;;;;;;;6.51;100.00;98013.53;5090954;28;20214;-87
2022/12/21 00:52:45;;;;;;;10.63;8.30;;;;;;;6.61;100.00;98019.09;5091142;28;20209;-87
2022/12/21 00:55:11;;;;;;;13.27;9.07;;;;;;;6.66;100.00;98011.84;5091085;28;20230;-86
2022/12/21 00:57:38;;;;;;;11.00;8.60;;;;;;;6.67;100.00;98019.63;5091262;28;20598;-87
2022/12/21 01:00:05;;;;;;;12.13;8.33;;;;;;;6.70;100.00;98018.59;5090990;28;20211;-87
2022/12/21 01:02:32;;;;;;;10.10;7.93;;;;;;;6.74;100.00;98012.25;5091001;28;20222;-86
2022/12/21 01:05:01;;;;;;;11.10;7.90;;;;;;;6.74;100.00;98020.13;5091051;28;20222;-87
2022/12/21 01:07:28;;;;;;;10.50;7.87;;;;;;;6.73;100.00;98024.50;5090997;28;20229;-87
2022/12/21 01:09:54;;;;;;;8.93;7.47;;;;;;;6.80;100.00;98028.53;5090740;28;20232;-87
2022/12/21 01:12:21;;;;;;;8.83;6.93;;;;;;;6.79;100.00;98025.97;5090938;28;20682;-89
2022/12/21 01:14:47;;;;;;;12.63;8.10;;;;;;;6.84;100.00;98027.41;5091046;28;20256;-88
2022/12/21 01:17:14;;;;;;;9.17;7.50;;;;;;;6.79;100.00;98028.59;5091259;28;20208;-89
2022/12/21 01:19:40;;;;;;;10.23;8.53;;;;;;;6.72;100.00;98025.44;5091166;28;20221;-87
2022/12/21 01:22:08;;;;;;;11.77;8.30;;;;;;;6.78;100.00;98027.75;5090841;28;20217;-87
2022/12/21 01:24:35;;;;;;;9.87;7.53;;;;;;;6.74;100.00;98031.47;5090795;28;20237;-87
2022/12/21 01:27:01;;;;;;;9.90;8.27;;;;;;;6.75;100.00;98014.78;5090961;28;20229;-87
2022/12/21 01:29:28;;;;;;;12.23;8.43;;;;;;;6.74;100.00;98025.38;5090674;28;20591;-87
2022/12/21 01:31:54;;;;;;;12.90;9.63;;;;;;;6.82;100.00;98024.00;5090736;28;20214;-87
2022/12/21 01:34:21;;;;;;;12.80;9.43;;;;;;;6.77;100.00;98022.59;5090602;28;20242;-87
2022/12/21 01:36:47;;;;;;;13.80;9.23;;;;;;;6.74;100.00;98020.97;5090949;28;20209;-87
2022/12/21 01:39:15;;;;;;;14.00;9.37;;;;;;;6.70;100.00;98029.09;5090568;28;20307;-87
2022/12/21 01:41:42;;;;;;;12.53;8.70;;;;;;;6.69;100.00;98022.16;5093614;28;20218;-87
2022/12/21 01:44:41;;;;;;;10.50;9.33;;;;;;;6.66;100.00;98017.91;5094617;28;20225;-87
2022/12/21 01:47:13;;;;;;;11.17;9.47;;;;;;;6.63;100.00;98017.22;5094497;28;20242;-87
2022/12/21 01:49:40;;;;;;;15.10;9.37;;;;;;;6.61;100.00;98013.84;5094511;28;20207;-87
2022/12/21 01:52:10;;;;;;;11.13;8.70;;;;;;;6.62;100.00;98008.53;5094609;28;20647;-86
2022/12/21 01:54:51;;;;;;;12.00;9.67;;;;;;;6.66;100.00;98007.41;5094600;28;20237;-87
2022/12/21 01:57:19;;;;;;;13.40;9.80;;;;;;;6.61;100.00;98001.59;5094709;28;20201;-86
2022/12/21 01:59:48;;;;;;;12.67;9.20;;;;;;;6.60;100.00;98001.66;5094402;28;20236;-86
2022/12/21 02:02:18;;;;;;;11.67;9.13;;;;;;;6.61;100.00;98005.97;5094538;28;20209;-87
2022/12/21 02:04:45;;;;;;;13.07;8.83;;;;;;;6.63;100.00;97990.97;5094429;28;20554;-87
2022/12/21 02:07:12;;;;;;;10.77;9.07;;;;;;;6.63;100.00;98002.34;5094050;28;20238;-87
2022/12/21 02:09:41;;;;;;;13.07;10.10;;;;;;;6.68;100.00;97994.19;5093937;28;20210;-87
2022/12/21 02:12:13;;;;;;;11.77;9.13;;;;;;;6.65;100.00;97987.34;5094210;28;20213;-88
2022/12/21 02:14:43;;;;;;;13.73;9.27;;;;;;;6.61;100.00;98000.72;5094379;28;20240;-88
2022/12/21 02:17:18;;;;;;;15.67;9.87;;;;;;;6.68;100.00;97989.81;5094384;28;20221;-88
2022/12/21 02:20:15;;;;;;;11.87;8.80;;;;;;;6.62;100.00;97997.16;5094576;28;20206;-88
2022/12/21 02:23:02;;;;;;;12.30;9.07;;;;;;;6.66;100.00;97996.91;5096083;28;20221;-88
2022/12/21 02:25:45;;;;;;;12.27;8.37;;;;;;;6.66;100.00;97998.69;5094603;28;20221;-88
2022/12/21 02:28:41;;;;;;;11.57;8.70;;;;;;;6.63;100.00;97986.59;5094500;28;20549;-88
2022/12/21 02:31:20;;;;;;;11.27;8.90;;;;;;;6.54;100.00;97988.88;5095099;28;20209;-89
2022/12/21 02:34:02;;;;;;;12.93;9.20;;;;;;;6.52;100.00;97994.22;5094374;28;20227;-88
2022/12/21 02:36:38;;;;;;;9.97;7.83;;;;;;;6.50;100.00;97996.09;5093879;28;20205;-88
2022/12/21 02:39:19;;;;;;;11.83;8.43;;;;;;;6.60;100.00;97991.16;5093645;28;20211;-88
2022/12/21 02:42:00;;;;;;;10.57;8.20;;;;;;;6.58;100.00;97983.38;5094032;28;20214;-88
2022/12/21 02:44:41;;;;;;;13.27;9.37;;;;;;;6.59;100.00;97986.84;5093580;28;20230;-89
2022/12/21 02:47:12;;;;;;;12.23;9.20;;;;;;;6.60;100.00;97986.75;5093814;28;20233;-88
2022/12/21 02:49:46;;;;;;;9.40;8.40;;;;;;;6.54;100.00;97976.59;5093216;28;20218;-88
2022/12/21 02:52:17;;;;;;;10.40;9.20;;;;;;;6.54;100.00;97991.50;5092959;28;20232;-88
2022/12/21 02:54:45;;;;;;;10.87;8.90;;;;;;;6.60;100.00;97986.75;5093664;28;20241;-88
2022/12/21 02:57:12;;;;;;;12.20;9.07;;;;;;;6.60;100.00;97970.97;5093579;28;20210;-88
2022/12/21 02:59:44;;;;;;;13.40;9.53;;;;;;;6.75;100.00;97974.53;5093223;28;20232;-88
2022/12/21 03:02:35;;;;;;;12.07;8.53;;;;;;;6.73;100.00;97971.97;5093336;28;20211;-88
2022/12/21 03:05:18;;;;;;;13.63;9.10;;;;;;;6.78;100.00;97977.00;5093852;28;20313;-88
2022/12/21 03:07:54;;;;;;;11.57;8.70;;;;;;;6.81;100.00;97974.19;5093124;28;20699;-89
2022/12/21 03:10:31;;;;;;;9.47;7.97;;;;;;;6.89;100.00;97962.31;5093141;28;20209;-88
2022/12/21 03:13:08;;;;;;;11.87;8.30;;;;;;;6.99;100.00;97971.38;5093839;28;20202;-89
2022/12/21 03:15:45;;;;;;;11.73;8.27;;;;;;;6.99;100.00;97970.50;5093366;28;20214;-89
2022/12/21 03:18:24;;;;;;;10.00;7.27;;;;;;;6.98;100.00;97967.06;5093333;28;20493;-89
2022/12/21 03:20:58;;;;;;;9.87;7.60;;;;;;;7.04;100.00;97966.72;5093287;28;20732;-89
2022/12/21 03:23:32;;;;;;;9.10;7.00;;;;;;;7.08;100.00;97962.13;5093051;28;20244;-88
2022/12/21 03:26:05;;;;;;;9.27;6.90;;;;;;;7.11;100.00;97972.44;5093287;28;20225;-89
2022/12/21 03:28:35;;;;;;;9.17;7.43;;;;;;;7.12;100.00;97961.84;5093002;28;20237;-89
2022/12/21 03:31:06;;;;;;;9.17;7.03;;;;;;;7.17;100.00;97967.69;5092561;28;20213;-90
2022/12/21 03:33:39;;;;;;;8.70;6.37;;;;;;;7.22;100.00;97965.63;5093043;28;20230;-90
2022/12/21 03:36:11;;;;;;;8.90;6.90;;;;;;;7.23;100.00;97957.63;5093000;28;20232;-88
2022/12/21 03:38:44;;;;;;;9.83;7.20;;;;;;;7.25;100.00;97962.81;5092967;28;20214;-89
2022/12/21 03:41:18;;;;;;;8.20;6.60;;;;;;;7.31;100.00;97959.81;5092843;28;20194;-90
2022/12/21 03:43:47;;;;;;;13.00;7.23;;;;;;;7.40;100.00;97959.28;5092453;28;20234;-89
2022/12/21 03:46:20;;;;;;;8.27;6.23;;;;;;;7.40;100.00;97961.91;5092436;28;20240;-89
2022/12/21 03:48:53;;;;;;;9.43;6.47;;;;;;;7.40;100.00;97967.16;5092666;28;20563;-89
2022/12/21 03:51:26;;;;;;;10.57;6.97;;;;;;;7.43;100.00;97953.84;5092669;28;20214;-89
2022/12/21 03:54:00;;;;;;;8.63;5.93;;;;;;;7.40;100.00;97954.00;5092402;28;20759;-90
2022/12/21 03:56:31;;;;;;;8.63;6.07;;;;;;;7.39;100.00;97947.06;5092727;28;20206;-89
2022/12/21 03:58:59;;;;;;;9.27;6.60;;;;;;;7.37;100.00;97946.31;5092260;28;20898;-89
2022/12/21 04:01:34;;;;;;;10.23;7.17;;;;;;;7.36;100.00;97948.09;5092353;28;20214;-89
2022/12/21 04:04:06;;;;;;;8.17;5.83;;;;;;;7.41;100.00;97939.94;5092134;28;20246;-90
2022/12/21 04:06:34;;;;;;;5.97;5.30;;;;;;;7.40;100.00;97939.09;5091925;28;20250;-89
2022/12/21 04:09:03;;;;;;;7.33;5.83;;;;;;;7.45;100.00;97941.44;5092027;28;20205;-89
2022/12/21 04:14:18;;;;;;;7.47;5.03;;;;;;;7.54;100.00;97935.66;5092087;28;20378;-85
2022/12/21 04:16:44;;;;;;;10.20;5.40;;;;;;;7.52;100.00;97933.09;5092300;28;20219;-90
2022/12/21 04:21:56;;;;;;;7.27;5.60;;;;;;;7.52;100.00;97948.03;5092135;28;20684;-89
2022/12/21 04:29:51;;;;;;;6.20;4.83;;;;;;;7.65;100.00;97941.94;5090375;28;20209;-89
2022/12/21 04:32:18;;;;;;;6.77;5.40;;;;;;;7.69;100.00;97939.97;5091827;28;20211;-89
2022/12/21 04:34:46;;;;;;;7.67;4.73;;;;;;;7.67;100.00;97934.81;5091498;28;20230;-89
2022/12/21 04:39:56;;;;;;;10.10;5.00;;;;;;;7.71;100.00;97932.84;5091357;28;20247;-88
2022/12/21 04:42:23;;;;;;;6.77;4.50;;;;;;;7.73;100.00;97936.22;5091627;28;20206;-88
2022/12/21 04:44:50;;;;;;;6.37;4.43;;;;;;;7.74;100.00;97941.41;5091325;28;20223;-88
2022/12/21 04:47:16;;;;;;;6.77;5.20;;;;;;;7.78;100.00;97942.06;5091558;28;20234;-88
2022/12/21 04:49:43;;;;;;;7.77;5.10;;;;;;;7.81;100.00;97939.22;5091077;28;20203;-88
2022/12/21 04:52:11;;;;;;;7.73;5.00;;;;;;;7.75;100.00;97936.97;5091211;28;20217;-88
2022/12/21 04:54:37;;;;;;;6.40;4.30;;;;;;;7.83;100.00;97937.38;5091141;28;20226;-88
2022/12/21 04:57:04;;;;;;;4.63;3.87;;;;;;;7.79;100.00;97931.41;5091536;28;20207;-88
2022/12/21 04:59:30;;;;;;;7.50;4.97;;;;;;;7.79;100.00;97925.31;5091341;28;20203;-88
2022/12/21 05:01:57;;;;;;;6.97;5.17;;;;;;;7.83;100.00;97918.94;5091369;28;20229;-89
2022/12/21 05:04:24;;;;;;;8.20;5.53;;;;;;;7.80;100.00;97921.75;5091043;28;20226;-88
2022/12/21 05:06:50;;;;;;;6.43;4.87;;;;;;;7.75;100.00;97929.94;5091230;28;20227;-89
2022/12/21 05:09:19;;;;;;;6.13;4.60;;;;;;;7.74;100.00;97928.25;5090891;28;20207;-89
2022/12/21 05:11:45;;;;;;;7.63;4.70;;;;;;;7.79;100.00;97927.97;5091463;28;20198;-89
2022/12/21 05:14:12;;;;;;;7.00;4.67;;;;;;;7.81;100.00;97931.34;5091315;28;20229;-89
2022/12/21 05:16:39;;;;;;;5.00;4.10;;;;;;;7.81;100.00;97928.69;5090779;28;20207;-89
2022/12/21 05:19:05;;;;;;;5.03;4.07;;;;;;;7.80;100.00;97930.50;5090665;28;20207;-88
2022/12/21 05:21:32;;;;;;;7.40;4.70;;;;;;;7.86;100.00;97924.88;5091006;28;20214;-89
2022/12/21 05:23:59;;;;;;;7.67;4.47;;;;;;;7.87;100.00;97926.56;5101075;22;20228;-79
2022/12/21 05:26:27;;;;;;;6.27;4.00;;;;;;;7.84;100.00;97925.91;5050973;28;20220;-80
2022/12/21 05:28:53;;;;;;;6.83;4.43;;;;;;;7.86;100.00;97924.00;5050546;28;20668;-79
2022/12/21 05:31:20;;;;;;;5.60;4.53;;;;;;;7.86;100.00;97926.63;5050791;28;20208;-80
2022/12/21 05:33:46;;;;;;;4.83;4.33;;;;;;;7.91;100.00;97924.56;5050688;28;20232;-79
2022/12/21 05:36:15;;;;;;;5.40;4.57;;;;;;;7.92;100.00;97926.25;5050654;28;20212;-79
2022/12/21 05:38:42;;;;;;;7.17;4.50;;;;;;;7.96;100.00;97919.88;5050825;28;20220;-79
2022/12/21 05:41:11;;;;;;;4.50;4.10;;;;;;;7.94;100.00;97919.97;5050709;28;20216;-80
2022/12/21 05:43:39;;;;;;;5.23;4.10;;;;;;;7.92;100.00;97926.25;5050748;28;20213;-80
2022/12/21 05:46:08;;;;;;;4.80;4.17;;;;;;;8.00;100.00;97913.47;5050699;28;20208;-79
2022/12/21 05:48:35;;;;;;;7.20;5.00;;;;;;;8.01;100.00;97921.28;5050385;28;20235;-79
2022/12/21 05:51:07;;;;;;;6.27;4.73;;;;;;;8.01;100.00;97912.50;5050625;28;20212;-80
2022/12/21 05:53:34;;;;;;;7.77;5.13;;;;;;;8.06;100.00;97924.47;5050600;28;20266;-80
2022/12/21 05:56:00;;;;;;;6.60;4.07;;;;;;;8.01;100.00;97915.16;5050614;28;20209;-79
2022/12/21 05:58:27;;;;;;;4.70;4.10;;;;;;;8.00;100.00;97916.09;5050374;28;20204;-80
2022/12/21 06:00:54;;;;;;;5.17;4.30;;;;;;;7.99;100.00;97911.78;5050152;28;20275;-79
2022/12/21 06:03:22;;;;;;;5.20;4.20;;;;;;;7.99;100.00;97914.41;5050156;28;20691;-80
2022/12/21 06:05:48;;;;;;;4.90;4.40;;;;;;;8.01;100.00;97915.16;5050512;28;20228;-79
2022/12/21 06:08:15;;;;;;;6.17;4.30;;;;;;;7.99;100.00;97912.63;5050427;28;20225;-79
2022/12/21 06:10:41;;;;;;;5.57;5.00;;;;;;;8.07;100.00;97910.34;5050100;28;20208;-80
2022/12/21 06:13:08;;;;;;;5.30;4.80;;;;;;;8.07;100.00;97909.50;5050313;28;20209;-79
2022/12/21 06:15:34;;;;;;;7.30;4.20;;;;;;;8.06;100.00;97913.09;5050204;28;20244;-79
2022/12/21 06:18:02;;;;;;;4.70;3.63;;;;;;;8.07;100.00;97912.13;5050567;28;20502;-79
2022/12/21 06:20:29;;;;;;;5.53;4.03;;;;;;;8.07;100.00;97904.25;5050161;28;20219;-79
2022/12/21 06:22:55;;;;;;;6.53;4.33;;;;;;;8.08;100.00;97900.69;5050326;28;20208;-79
2022/12/21 06:25:22;;;;;;;4.67;4.10;;;;;;;8.10;100.00;97904.06;5050117;28;20235;-79
2022/12/21 06:27:49;;;;;;;5.90;4.30;;;;;;;8.13;100.00;97903.84;5051476;28;20224;-79
2022/12/21 06:30:15;;;;;;;5.50;3.97;;;;;;;8.18;100.00;97904.41;5053290;28;20212;-79
2022/12/21 06:32:42;;;;;;;6.20;4.43;;;;;;;8.14;100.00;97903.75;5053788;28;20216;-80
2022/12/21 06:35:10;;;;;;;7.87;4.80;;;;;;;8.21;100.00;97906.91;5053570;28;20282;-80
2022/12/21 06:37:37;;;;;;;6.87;4.30;;;;;;;8.18;100.00;97907.03;5053513;28;20211;-79
2022/12/21 06:40:04;;;;;;;7.70;4.90;;;;;;;8.20;100.00;97905.22;5053416;28;20278;-79
2022/12/21 06:42:30;;;;;;;4.93;4.20;;;;;;;8.18;100.00;97912.31;5053840;28;20316;-79
2022/12/21 06:44:57;;;;;;;9.83;4.53;;;;;;;8.26;100.00;97910.91;5053322;28;20254;-79
2022/12/21 06:47:23;;;;;;;5.20;4.00;;;;;;;8.22;100.00;97909.44;5053543;28;20684;-80
2022/12/21 06:49:50;;;;;;;5.63;4.40;;;;;;;8.21;100.00;97906.91;5053374;28;20212;-79
2022/12/21 06:52:17;;;;;;;6.33;4.70;;;;;;;8.25;100.00;97911.88;5053577;28;20212;-80
2022/12/21 06:54:44;;;;;;;5.33;4.20;;;;;;;8.25;100.00;97908.38;5053197;28;20715;-79
2022/12/21 06:57:10;;;;;;;7.13;4.70;;;;;;;8.19;100.00;97908.72;5053334;28;20204;-79
2022/12/21 06:59:37;;;;;;;6.07;4.73;;;;;;;8.18;100.00;97907.03;5053305;28;20208;-79
2022/12/21 07:02:03;;;;;;;5.40;4.30;;;;;;;8.18;100.00;97913.16;5053456;28;20215;-79
2022/12/21 07:04:30;;;;;;;6.07;4.63;;;;;;;8.17;100.00;97916.75;5053142;28;20228;-79
2022/12/21 07:06:57;;;;;;;8.50;4.97;;;;;;;8.20;100.00;97915.75;5053441;28;20216;-79
2022/12/21 07:09:24;;;;;;;6.53;4.60;;;;;;;8.19;100.00;97920.16;5053068;28;20208;-79
2022/12/21 07:11:52;;;;;;;6.93;4.90;;;;;;;8.30;100.00;97927.38;5053269;28;20212;-79
2022/12/21 07:14:18;;;;;;;8.13;5.13;;;;;;;8.30;100.00;97916.84;5053205;28;20658;-79
2022/12/21 07:16:45;;;;;;;5.80;4.93;;;;;;;8.29;100.00;97920.41;5053409;28;20243;-80
2022/12/21 07:19:11;;;;;;;9.90;6.37;;;;;;;8.37;100.00;97919.00;5052929;28;20221;-80
2022/12/21 07:21:38;;;;;;;7.93;6.17;;;;;;;8.34;100.00;97918.34;5053164;28;20218;-79
2022/12/21 07:24:06;;;;;;;8.93;5.90;;;;;;;8.37;100.00;97928.66;5052912;28;20395;-79
2022/12/21 07:26:33;;;;;;;8.27;5.80;;;;;;;8.37;100.00;97923.41;5053257;28;20204;-80
2022/12/21 07:29:00;;;;;;;11.10;8.73;;;;;;;8.41;100.00;97922.28;5052523;28;20234;-79
2022/12/21 07:31:27;;;;;;;10.30;8.10;;;;;;;8.41;100.00;97927.53;5053195;28;20684;-79
2022/12/21 07:33:54;;;;;;;10.47;7.80;;;;;;;8.37;100.00;97923.41;5052975;28;20221;-79
2022/12/21 07:36:21;;;;;;;10.03;7.40;;;;;;;8.34;100.00;97923.59;5052992;28;20212;-79
2022/12/21 07:38:47;;;;;;;11.07;7.40;;;;;;;8.36;100.00;97927.84;5052526;28;20208;-81
2022/12/21 07:41:15;;;;;;;10.00;6.53;;;;;;;8.36;100.00;97926.97;5052666;28;20727;-81
2022/12/21 07:43:43;;;;;;;7.40;5.77;;;;;;;8.39;100.00;97926.81;5052983;28;20211;-79
2022/12/21 07:46:10;;;;;;;6.50;5.63;;;;;;;8.37;100.00;97926.88;5052384;28;20676;-79
2022/12/21 07:48:37;;;;;;;7.60;5.90;;;;;;;8.41;100.00;97935.44;5052544;28;20224;-79
2022/12/21 07:51:04;;;;;;;6.87;4.93;;;;;;;8.41;100.00;97932.81;5052282;28;20223;-80
2022/12/21 07:53:31;;;;;;;9.40;6.10;;;;;;;8.37;100.00;97929.53;5052447;28;20213;-78
2022/12/21 07:56:01;;;;;;;8.23;4.93;;;;;;;8.43;100.00;97933.53;5052544;28;20205;-79
2022/12/21 07:58:28;;;;;;;6.10;5.07;;;;;;;8.41;100.00;97940.69;5052400;28;20225;-79
2022/12/21 08:00:56;;;;;;;9.27;5.17;;;;;;;8.40;100.00;97931.13;5052365;28;20205;-80
2022/12/21 08:03:22;;;;;;;9.23;5.27;;;;;;;8.39;100.00;97932.06;5052290;28;20215;-79
2022/12/21 08:05:49;;;;;;;7.30;5.30;;;;;;;8.39;100.00;97942.59;5052131;28;20239;-79
2022/12/21 08:08:15;;;;;;;8.10;4.90;;;;;;;8.40;100.00;97939.84;5051922;28;20708;-79
2022/12/21 08:10:46;;;;;;;6.23;4.80;;;;;;;8.41;100.00;97941.56;5052211;28;20210;-78
2022/12/21 08:13:12;;;;;;;7.47;4.87;;;;;;;8.42;100.00;97942.38;5052222;28;20216;-78
2022/12/21 08:15:39;;;;;;;11.63;5.80;;;;;;;8.41;100.00;97941.56;5052124;28;20224;-78
2022/12/21 08:18:07;;;;;;;7.33;4.30;;;;;;;8.45;100.00;97947.47;5052014;28;20655;-77
2022/12/21 08:20:34;;;;;;;7.87;4.60;;;;;;;8.46;100.00;97949.16;5051691;28;20216;-80
2022/12/21 08:23:00;;;;;;;6.50;4.20;;;;;;;8.45;100.00;97950.94;5052104;28;20273;-76
2022/12/21 08:25:27;;;;;;;7.50;4.13;;;;;;;8.46;100.00;97943.91;5051865;28;20236;-79
2022/12/21 08:27:54;;;;;;;5.27;4.03;;;;;;;8.47;100.00;97941.16;5051957;28;20232;-80
2022/12/21 08:30:20;;;;;;;5.17;3.70;;;;;;;8.50;100.00;97940.13;5051465;28;20212;-79
2022/12/21 08:32:47;;;;;;;4.23;3.57;;;;;;;8.52;100.00;97946.13;5051679;28;20208;-77
2022/12/21 08:35:15;;;;;;;5.17;3.67;;;;;;;8.53;100.00;97950.47;5051644;28;20250;-78
2022/12/21 08:37:41;;;;;;;5.23;3.50;;;;;;;8.53;100.00;97945.19;5051996;28;20217;-74
2022/12/21 08:40:09;;;;;;;4.63;3.50;;;;;;;8.55;100.00;97943.28;5051549;28;20208;-76
2022/12/21 08:42:36;;;;;;;4.60;3.50;;;;;;;8.58;100.00;97948.38;5047668;28;20216;-77
2022/12/21 08:45:02;;;;;;;6.70;3.80;;;;;;;8.62;100.00;97944.63;5049063;28;20228;-78
2022/12/21 08:47:28;;;;;;;5.07;3.63;;;;;;;8.69;100.00;97953.81;5049768;28;20220;-78
2022/12/21 08:49:55;;;;;;;6.43;4.10;;;;;;;8.68;100.00;97949.47;5049049;28;20235;-77
2022/12/21 08:52:23;;;;;;;6.43;3.70;;;;;;;8.68;100.00;97945.06;5049210;28;20217;-78
2022/12/21 08:54:49;;;;;;;6.33;3.57;;;;;;;8.73;100.00;97952.66;5049233;28;20255;-76
2022/12/21 08:57:16;;;;;;;4.17;3.20;;;;;;;8.73;100.00;97947.38;5049790;28;20215;-77
2022/12/21 08:59:42;;;;;;;2.90;2.60;;;;;;;8.73;100.00;97950.00;5046079;28;20298;-77
2022/12/21 09:02:10;;;;;;;3.43;2.83;;;;;;;8.74;100.00;97955.19;5029945;28;20207;-77
2022/12/21 09:04:37;;;;;;;4.20;2.63;;;;;;;8.76;100.00;97958.56;5038942;28;20232;-78
2022/12/21 09:07:03;;;;;;;4.67;3.30;;;;;;;8.76;100.00;97957.75;5049991;28;20680;-77
2022/12/21 09:09:31;;;;;;;5.83;3.60;;;;;;;8.75;100.00;97950.78;5049916;28;20231;-77
2022/12/21 09:11:58;;;;;;;4.33;3.30;;;;;;;8.81;100.00;97958.28;5049944;28;20225;-77
2022/12/21 09:14:25;;;;;;;4.13;3.37;;;;;;;8.82;100.00;97954.72;5049753;28;20232;-78
2022/12/21 09:16:52;;;;;;;6.50;2.93;;;;;;;8.84;100.00;97955.44;5050481;28;20284;-77
2022/12/21 09:19:18;;;;;;;4.60;3.07;;;;;;;8.86;100.00;97953.53;5049969;28;20215;-78
2022/12/21 09:21:45;;;;;;;4.67;3.40;;;;;;;8.84;100.00;97958.06;5050471;28;20209;-77
2022/12/21 09:24:11;;;;;;;5.77;3.03;;;;;;;8.85;100.00;97951.84;5050190;28;20603;-78
2022/12/21 09:26:41;;;;;;;5.13;3.40;;;;;;;8.88;100.00;97968.31;5050675;28;20217;-77
2022/12/21 09:29:09;;;;;;;6.20;2.77;;;;;;;8.87;100.00;97969.25;5050237;28;20591;-77
2022/12/21 09:31:36;;;;;;;3.83;3.00;;;;;;;8.88;100.00;97967.47;5049808;28;20589;-79
2022/12/21 09:34:02;;;;;;;3.23;2.77;;;;;;;8.89;100.00;97969.16;5030832;28;20338;-80
2022/12/21 09:36:29;;;;;;;4.60;3.27;;;;;;;8.86;100.00;97961.44;5029489;28;20217;-77
2022/12/21 09:38:55;;;;;;;3.53;2.90;;;;;;;8.88;100.00;97962.22;5029477;28;20649;-79
2022/12/21 09:41:34;;;;;;;6.10;3.03;;;;;;;8.87;100.00;97957.88;5029998;28;20285;-80
2022/12/21 09:44:19;;;;;;;5.30;3.03;;;;;;;8.87;100.00;97961.34;5036131;28;20236;-79
2022/12/21 09:46:49;;;;;;;5.97;3.43;;;;;;;8.86;100.00;97953.53;5049030;28;20208;-79
2022/12/21 09:49:21;;;;;;;4.70;3.23;;;;;;;8.90;100.00;97955.03;5034404;28;20240;-79
2022/12/21 09:51:54;;;;;;;4.60;3.67;;;;;;;8.93;100.00;97962.75;5029264;28;20216;-78
2022/12/21 09:54:27;;;;;;;4.83;3.17;;;;;;;8.95;100.00;97969.63;5030460;28;20234;-77
2022/12/21 09:56:56;;;;;;;3.83;2.90;;;;;;;9.00;100.00;97969.31;5030864;28;20213;-79
2022/12/21 09:59:24;;;;;;;3.73;3.00;;;;;;;9.01;100.00;97968.38;5030801;28;20232;-79
2022/12/21 10:01:58;;;;;;;4.37;3.00;;;;;;;9.03;100.00;97966.47;5031826;28;20696;-79
2022/12/21 10:04:33;;;;;;;4.30;2.90;;;;;;;9.04;100.00;97974.28;5034396;28;20232;-77
2022/12/21 10:07:18;;;;;;;6.87;3.43;;;;;;;9.05;100.00;97975.97;5034199;28;20241;-76
2022/12/21 10:10:00;;;;;;;4.63;3.30;;;;;;;9.08;100.00;97969.66;5034309;28;20530;-79
2022/12/21 10:12:33;;;;;;;4.47;3.50;;;;;;;9.15;100.00;97971.78;5034294;28;20638;-79
2022/12/21 10:15:13;;;;;;;8.10;3.50;;;;;;;9.17;100.00;97971.69;5034283;28;20617;-78
2022/12/21 10:17:50;;;;;;;4.40;3.30;;;;;;;9.25;100.00;97978.13;5034245;28;20211;-79
2022/12/21 10:20:31;;;;;;;4.60;3.30;;;;;;;9.32;100.00;97973.31;5034060;28;20214;-78
2022/12/21 10:23:01;;;;;;;6.20;3.60;;;;;;;9.39;100.00;97979.84;5034136;28;20217;-78
2022/12/21 10:25:39;;;;;;;5.70;3.10;;;;;;;9.38;100.00;97980.81;5034006;28;20247;-78
2022/12/21 10:28:18;;;;;;;6.83;3.47;;;;;;;9.35;100.00;97968.66;5034154;28;20236;-78
2022/12/21 10:30:48;;;;;;;5.33;3.00;;;;;;;9.32;100.00;97974.16;5033635;28;20691;-77
2022/12/21 10:33:23;;;;;;;3.57;3.17;;;;;;;9.35;100.00;97978.34;5033961;28;20656;-78
2022/12/21 10:35:54;;;;;;;8.73;3.80;;;;;;;9.25;100.00;97977.31;5033949;28;20584;-78
2022/12/21 10:38:20;;;;;;;3.60;2.87;;;;;;;9.19;100.00;97988.25;5033672;28;20209;-79
2022/12/21 10:40:52;;;;;;;5.32;3.72;;;;;;;9.23;100.00;97984.47;5033312;28;20441;-80
2022/12/21 10:43:20;;;;;;;5.60;3.80;;;;;;;9.23;100.00;97968.66;5032234;28;20211;-80
2022/12/21 10:45:48;;;;;;;5.27;3.43;;;;;;;9.28;100.00;97974.44;5032561;28;20225;-81
2022/12/21 10:48:15;;;;;;;3.50;3.07;;;;;;;9.32;100.00;97976.81;5032814;28;20237;-80
2022/12/21 10:50:44;;;;;;;4.30;3.43;;;;;;;9.36;100.00;97974.81;5032728;28;20210;-81
2022/12/21 10:53:24;;;;;;;3.97;3.30;;;;;;;9.46;100.00;97978.50;5049107;28;20527;-78
2022/12/21 10:55:52;;;;;;;5.97;3.20;;;;;;;9.51;100.00;97976.41;5053629;28;20241;-81
2022/12/21 10:58:21;;;;;;;4.97;3.40;;;;;;;9.46;100.00;97975.84;5053459;28;20204;-78
2022/12/21 11:01:00;;;;;;;4.60;3.07;;;;;;;9.40;100.00;97971.84;5053164;28;20304;-80
2022/12/21 11:03:29;;;;;;;4.73;3.60;;;;;;;9.37;100.00;97972.03;5053086;28;20224;-79
2022/12/21 11:05:56;;;;;;;4.20;3.70;;;;;;;9.30;100.00;97975.22;5053186;28;20304;-80
2022/12/21 11:08:26;;;;;;;5.27;3.00;;;;;;;9.19;100.00;97977.72;5053299;28;20225;-84
2022/12/21 11:10:55;;;;;;;6.03;3.50;;;;;;;9.12;100.00;97963.25;5053031;28;20204;-80
2022/12/21 11:13:23;;;;;;;4.77;3.37;;;;;;;9.05;100.00;97964.59;5052419;28;20642;-78
2022/12/21 11:15:59;;;;;;;4.23;3.17;;;;;;;9.12;100.00;97955.34;5052888;28;20239;-80
2022/12/21 11:18:37;;;;;;;5.07;3.67;;;;;;;9.19;100.00;97961.88;5053251;28;20210;-78
2022/12/21 11:21:10;;;;;;;6.07;3.83;;;;;;;9.31;100.00;97968.97;5052998;28;20213;-79
2022/12/21 11:23:37;;;;;;;5.63;3.40;;;;;;;9.40;100.00;97971.00;5052753;28;20299;-80
2022/12/21 11:26:03;;;;;;;7.33;3.53;;;;;;;9.43;100.00;97966.34;5069081;22;20713;-82
2022/12/21 11:28:30;;;;;;;6.33;3.33;;;;;;;9.54;100.00;97965.66;5052451;28;20229;-84
2022/12/21 11:31:03;;;;;;;4.70;3.57;;;;;;;9.61;100.00;97959.00;5052431;28;20212;-85
2022/12/21 11:33:30;;;;;;;4.17;3.27;;;;;;;9.71;100.00;97957.41;5052593;28;20222;-85
2022/12/21 11:36:10;;;;;;;4.10;3.30;;;;;;;9.78;100.00;97958.72;5070455;28;20227;-91
2022/12/21 11:38:38;;;;;;;5.43;3.57;;;;;;;9.86;100.00;97964.28;5072419;28;20213;-91
2022/12/21 11:41:11;;;;;;;5.60;3.43;;;;;;;9.95;100.00;97964.50;5072305;28;20302;-87
2022/12/21 11:43:45;;;;;;;4.10;3.03;;;;;;;10.15;100.00;97955.22;5072310;28;20239;-84
2022/12/21 11:46:21;;;;;;;3.80;2.80;;;;;;;10.27;100.00;97955.19;5072358;28;20241;-84
2022/12/21 11:48:55;;;;;;;3.33;3.00;;;;;;;10.40;100.00;97949.91;5071960;28;20226;-86
2022/12/21 11:51:29;;;;;;;4.73;2.83;;;;;;;10.45;100.00;97948.59;5072348;28;20207;-86
2022/12/21 11:54:17;;;;;;;3.77;2.50;;;;;;;10.53;100.00;97940.13;5072166;28;20216;-85
2022/12/21 11:56:49;;;;;;;4.00;2.43;;;;;;;10.61;100.00;97943.06;5072232;28;20225;-86